createdAt,value
2022-12-11T00:01:22.399Z,21.83
2022-12-11T00:03:49.813Z,21.60
2022-12-11T00:06:19.427Z,21.80
2022-12-11T00:08:46.590Z,22.20
2022-12-11T00:11:15.551Z,21.23
2022-12-11T00:13:49.176Z,25.98
2022-12-11T00:16:23.775Z,21.70
2022-12-11T00:18:54.923Z,19.37
2022-12-11T00:21:22.738Z,20.20
2022-12-11T00:23:49.781Z,19.47
2022-12-11T00:26:17.919Z,19.63
2022-12-11T00:28:53.168Z,19.90
2022-12-11T00:31:24.077Z,19.93
2022-12-11T00:33:51.804Z,19.67
2022-12-11T00:36:24.075Z,20.43
2022-12-11T00:38:54.866Z,20.10
2022-12-11T00:41:28.013Z,20.00
2022-12-11T00:43:55.251Z,20.33
2022-12-11T00:46:22.539Z,19.97
2022-12-11T00:48:50.316Z,20.50
2022-12-11T00:51:21.551Z,19.63
2022-12-11T00:53:48.890Z,19.13
2022-12-11T00:56:21.011Z,19.57
2022-12-11T00:58:55.347Z,19.60
2022-12-11T01:01:26.235Z,20.07
2022-12-11T01:03:54.216Z,19.80
2022-12-11T01:06:26.553Z,18.90
2022-12-11T01:09:15.637Z,20.13
2022-12-11T01:11:45.134Z,20.03
2022-12-11T01:14:16.568Z,21.07
2022-12-11T01:16:43.981Z,19.93
2022-12-11T01:19:11.301Z,21.17
2022-12-11T01:21:38.327Z,21.13
2022-12-11T01:24:06.185Z,21.53
2022-12-11T01:26:33.423Z,20.73
2022-12-11T01:29:01.319Z,20.37
2022-12-11T01:31:28.407Z,20.20
2022-12-11T01:33:56.323Z,20.90
2022-12-11T01:36:24.411Z,18.93
2022-12-11T01:38:51.556Z,21.10
2022-12-11T01:41:19.620Z,20.60
2022-12-11T01:43:56.800Z,20.77
2022-12-11T01:46:24.848Z,19.97
2022-12-11T01:48:55.727Z,20.33
2022-12-11T01:51:24.122Z,21.00
2022-12-11T01:54:04.966Z,18.83
2022-12-11T01:56:34.117Z,19.50
2022-12-11T01:59:07.455Z,19.53
2022-12-11T02:01:43.159Z,19.07
2022-12-11T02:04:11.425Z,20.00
2022-12-11T02:06:39.638Z,20.00
2022-12-11T02:09:13.341Z,20.07
2022-12-11T02:11:52.472Z,19.53
2022-12-11T02:14:22.486Z,19.17
2022-12-11T02:16:59.108Z,18.90
2022-12-11T02:19:47.826Z,19.03
2022-12-11T02:22:27.709Z,19.80
2022-12-11T02:25:13.111Z,18.93
2022-12-11T02:27:47.943Z,19.80
2022-12-11T02:30:16.707Z,19.47
2022-12-11T02:32:57.583Z,20.27
2022-12-11T02:35:57.292Z,18.63
2022-12-11T02:38:30.461Z,18.17
2022-12-11T02:41:02.333Z,18.63
2022-12-11T02:43:31.926Z,19.03
2022-12-11T02:46:00.910Z,20.00
2022-12-11T02:48:28.131Z,19.73
2022-12-11T02:50:58.896Z,19.13
2022-12-11T02:53:28.834Z,18.53
2022-12-11T02:56:12.914Z,18.20
2022-12-11T02:58:47.907Z,19.53
2022-12-11T03:01:15.298Z,18.33
2022-12-11T03:03:42.614Z,19.00
2022-12-11T03:06:14.130Z,18.63
2022-12-11T03:17:43.534Z,17.00
2022-12-11T03:20:55.775Z,17.60
2022-12-11T03:23:35.628Z,16.63
2022-12-11T03:26:17.693Z,16.80
2022-12-11T03:48:02.568Z,16.13
2022-12-11T03:53:18.121Z,16.20
2022-12-11T03:55:46.363Z,16.77
2022-12-11T03:58:13.546Z,15.93
2022-12-11T04:00:43.372Z,15.43
2022-12-11T04:03:14.143Z,15.73
2022-12-11T04:05:46.950Z,16.00
2022-12-11T04:08:23.360Z,14.90
2022-12-11T04:11:16.611Z,14.30
2022-12-11T04:13:45.522Z,14.23
2022-12-11T04:16:15.348Z,14.63
2022-12-11T04:19:03.563Z,15.53
2022-12-11T04:21:49.755Z,14.37
2022-12-11T04:24:17.317Z,13.00
2022-12-11T04:26:46.725Z,13.77
2022-12-11T04:29:15.817Z,14.23
2022-12-11T04:31:45.033Z,14.33
2022-12-11T04:34:14.116Z,14.60
2022-12-11T04:36:41.162Z,13.80
2022-12-11T04:39:10.975Z,15.30
2022-12-11T04:41:48.373Z,15.23
2022-12-11T04:44:23.191Z,15.70
2022-12-11T04:46:54.963Z,14.97
2022-12-11T04:49:25.376Z,15.30
2022-12-11T04:51:52.633Z,15.53
2022-12-11T04:54:19.681Z,15.03
2022-12-11T04:56:47.324Z,15.93
2022-12-11T04:59:15.006Z,15.20
2022-12-11T05:01:44.967Z,15.97
2022-12-11T05:04:14.634Z,16.10
2022-12-11T05:06:45.574Z,15.47
2022-12-11T05:09:13.540Z,15.97
2022-12-11T05:11:43.569Z,15.20
2022-12-11T05:14:10.875Z,16.17
2022-12-11T05:16:38.027Z,15.20
2022-12-11T05:19:08.587Z,15.83
2022-12-11T05:21:35.746Z,15.03
2022-12-11T05:24:03.677Z,14.63
2022-12-11T05:26:32.157Z,14.20
2022-12-11T05:28:59.521Z,14.40
2022-12-11T05:31:27.849Z,14.67
2022-12-11T05:33:54.869Z,14.67
2022-12-11T05:36:34.890Z,13.63
2022-12-11T05:39:03.501Z,14.10
2022-12-11T05:41:32.699Z,14.67
2022-12-11T05:44:03.100Z,13.03
2022-12-11T05:46:33.597Z,13.60
2022-12-11T05:49:02.232Z,14.07
2022-12-11T05:51:48.957Z,12.83
2022-12-11T05:54:51.631Z,13.07
2022-12-11T05:57:59.293Z,12.77
2022-12-11T06:00:36.316Z,12.07
2022-12-11T06:03:09.595Z,11.93
2022-12-11T06:10:24.106Z,11.63
2022-12-11T06:13:41.007Z,11.37
2022-12-11T06:17:17.368Z,10.90
2022-12-11T06:19:44.374Z,10.87
2022-12-11T06:22:12.272Z,11.47
2022-12-11T06:24:42.035Z,11.07
2022-12-11T06:27:09.236Z,10.77
2022-12-11T06:29:36.295Z,10.77
2022-12-11T06:32:12.366Z,9.70
2022-12-11T06:34:45.209Z,10.60
2022-12-11T06:37:15.036Z,10.33
2022-12-11T06:39:52.022Z,9.30
2022-12-11T06:42:39.495Z,10.70
2022-12-11T06:45:13.180Z,10.07
2022-12-11T06:47:47.613Z,9.97
2022-12-11T06:50:52.324Z,9.70
2022-12-11T06:53:57.208Z,10.47
2022-12-11T06:59:32.991Z,9.23
2022-12-11T07:02:00.004Z,9.40
2022-12-11T07:04:48.288Z,9.80
2022-12-11T07:07:36.781Z,8.97
2022-12-11T07:10:08.282Z,9.23
2022-12-11T07:12:40.144Z,9.77
2022-12-11T07:15:11.054Z,9.90
2022-12-11T07:17:45.707Z,8.73
2022-12-11T07:23:59.039Z,8.87
2022-12-11T07:26:49.207Z,9.07
2022-12-11T07:29:41.194Z,9.20
2022-12-11T07:56:58.471Z,9.10
2022-12-11T07:59:25.705Z,9.10
2022-12-11T08:01:52.991Z,9.57
2022-12-11T08:04:23.158Z,9.73
2022-12-11T08:06:51.416Z,9.63
2022-12-11T08:10:09.241Z,10.07
2022-12-11T08:12:41.867Z,10.37
2022-12-11T08:15:24.832Z,10.60
2022-12-11T08:18:23.972Z,11.03
2022-12-11T08:21:24.164Z,10.27
2022-12-11T08:24:47.185Z,12.03
2022-12-11T08:27:17.638Z,11.27
2022-12-11T08:29:57.949Z,11.50
2022-12-11T08:36:31.392Z,11.20
2022-12-11T08:39:18.687Z,10.87
2022-12-11T08:41:45.504Z,11.20
2022-12-11T08:44:16.400Z,9.97
2022-12-11T08:46:44.086Z,10.77
2022-12-11T08:49:12.337Z,10.97
2022-12-11T08:51:39.332Z,11.90
2022-12-11T08:54:06.255Z,10.90
2022-12-11T08:56:33.275Z,10.47
2022-12-11T08:59:01.252Z,11.03
2022-12-11T09:04:39.020Z,10.00
2022-12-11T09:07:18.380Z,9.47
2022-12-11T09:13:53.102Z,10.03
2022-12-11T09:17:09.293Z,9.90
2022-12-11T09:19:36.184Z,10.03
2022-12-11T09:22:18.813Z,9.90
2022-12-11T09:25:35.874Z,9.80
2022-12-11T09:31:58.053Z,9.77
2022-12-11T09:37:52.482Z,10.37
2022-12-11T09:40:34.865Z,10.00
2022-12-11T09:43:36.914Z,10.97
2022-12-11T09:46:34.015Z,10.67
2022-12-11T09:49:43.954Z,10.77
2022-12-11T09:52:52.413Z,10.03
2022-12-11T09:56:42.795Z,9.80
2022-12-11T10:00:05.553Z,10.13
2022-12-11T10:02:50.936Z,9.73
2022-12-11T10:06:57.156Z,10.17
2022-12-11T10:09:40.666Z,9.17
2022-12-11T10:17:05.859Z,10.07
2022-12-11T10:20:17.012Z,9.40
2022-12-11T10:23:15.633Z,9.17
2022-12-11T10:26:12.061Z,10.30
2022-12-11T10:29:30.212Z,9.40
2022-12-11T10:32:39.961Z,10.10
2022-12-11T10:38:45.242Z,10.57
2022-12-11T10:41:17.503Z,10.23
2022-12-11T10:43:52.843Z,9.50
2022-12-11T10:46:32.977Z,10.13
2022-12-11T10:49:01.689Z,10.40
2022-12-11T10:51:31.530Z,10.23
2022-12-11T10:54:08.783Z,10.13
2022-12-11T10:56:38.041Z,10.00
2022-12-11T10:59:05.594Z,9.60
2022-12-11T11:01:33.176Z,9.83
2022-12-11T11:04:16.632Z,9.23
2022-12-11T11:06:45.976Z,9.93
2022-12-11T11:09:39.923Z,9.50
2022-12-11T11:12:26.315Z,8.50
2022-12-11T11:15:12.459Z,9.50
2022-12-11T11:17:55.684Z,9.27
2022-12-11T11:20:29.263Z,9.17
2022-12-11T11:23:09.087Z,9.90
2022-12-11T11:25:36.091Z,8.73
2022-12-11T11:28:15.607Z,8.80
2022-12-11T11:30:54.648Z,8.23
2022-12-11T11:33:23.285Z,8.03
2022-12-11T11:36:21.471Z,8.30
2022-12-11T11:39:21.775Z,7.30
2022-12-11T11:42:19.248Z,7.47
2022-12-11T11:45:13.646Z,7.83
2022-12-11T11:47:55.009Z,8.03
2022-12-11T11:50:29.442Z,8.93
2022-12-11T11:53:10.824Z,7.83
2022-12-11T11:56:06.232Z,8.37
2022-12-11T11:58:49.742Z,7.57
2022-12-11T12:01:20.816Z,8.03
2022-12-11T12:03:49.906Z,7.43
2022-12-11T12:06:58.824Z,8.00
2022-12-11T12:09:48.956Z,7.53
2022-12-11T12:12:52.747Z,7.60
2022-12-11T12:15:28.578Z,7.87
2022-12-11T12:17:57.262Z,8.40
2022-12-11T12:20:47.821Z,9.23
2022-12-11T12:23:29.677Z,8.23
2022-12-11T12:26:16.154Z,8.80
2022-12-11T12:29:14.491Z,8.77
2022-12-11T12:32:07.845Z,8.37
2022-12-11T12:34:44.096Z,7.83
2022-12-11T12:37:32.670Z,8.27
2022-12-11T12:40:19.362Z,7.67
2022-12-11T12:43:01.742Z,7.83
2022-12-11T12:45:59.178Z,8.73
2022-12-11T12:48:27.928Z,8.70
2022-12-11T12:50:58.177Z,7.60
2022-12-11T12:53:28.836Z,9.23
2022-12-11T12:55:56.686Z,9.00
2022-12-11T12:58:39.946Z,9.13
2022-12-11T13:01:12.989Z,9.73
2022-12-11T13:04:02.250Z,10.37
2022-12-11T13:06:44.176Z,10.27
2022-12-11T13:09:19.103Z,10.90
2022-12-11T13:11:50.115Z,11.33
2022-12-11T13:14:16.893Z,10.47
2022-12-11T13:16:48.654Z,11.00
2022-12-11T13:19:25.509Z,9.93
2022-12-11T13:22:02.146Z,10.30
2022-12-11T13:24:32.479Z,10.57
2022-12-11T13:27:23.376Z,10.27
2022-12-11T13:29:50.250Z,10.20
2022-12-11T13:32:17.077Z,10.87
2022-12-11T13:34:51.576Z,11.40
2022-12-11T13:37:43.634Z,11.03
2022-12-11T13:40:22.334Z,10.40
2022-12-11T13:42:53.036Z,10.23
2022-12-11T13:45:28.279Z,10.77
2022-12-11T13:47:59.608Z,10.20
2022-12-11T13:50:32.692Z,10.60
2022-12-11T13:53:02.203Z,9.13
2022-12-11T13:55:34.325Z,9.13
2022-12-11T13:58:01.190Z,9.37
2022-12-11T14:00:32.173Z,10.30
2022-12-11T14:03:04.146Z,10.27
2022-12-11T14:05:31.252Z,10.17
2022-12-11T14:08:03.684Z,10.53
2022-12-11T14:10:32.552Z,10.60
2022-12-11T14:12:59.327Z,10.47
2022-12-11T14:15:28.138Z,10.10
2022-12-11T14:17:56.134Z,10.30
2022-12-11T14:20:28.892Z,10.80
2022-12-11T14:23:23.889Z,10.50
2022-12-11T14:26:01.962Z,10.57
2022-12-11T14:28:36.981Z,10.57
2022-12-11T14:31:06.578Z,10.13
2022-12-11T14:33:38.442Z,9.87
2022-12-11T14:36:06.643Z,9.87
2022-12-11T14:38:37.673Z,12.67
2022-12-11T14:41:13.145Z,9.57
2022-12-11T14:43:48.353Z,10.20
2022-12-11T14:46:19.969Z,9.93
2022-12-11T14:49:00.858Z,9.70
2022-12-11T14:51:32.031Z,9.10
2022-12-11T14:53:59.388Z,9.87
2022-12-11T14:56:29.338Z,9.53
2022-12-11T14:59:04.164Z,9.63
2022-12-11T15:01:37.098Z,9.33
2022-12-11T15:04:19.719Z,9.40
2022-12-11T15:06:49.184Z,8.93
2022-12-11T15:09:35.652Z,8.83
2022-12-11T15:12:14.448Z,8.63
2022-12-11T15:14:55.087Z,8.97
2022-12-11T15:17:24.010Z,8.43
2022-12-11T15:19:57.043Z,9.07
2022-12-11T15:22:26.647Z,8.80
2022-12-11T15:24:55.132Z,9.27
2022-12-11T15:27:37.896Z,8.20
2022-12-11T15:30:30.084Z,9.37
2022-12-11T15:33:19.580Z,8.23
2022-12-11T15:36:25.204Z,8.87
2022-12-11T15:38:52.467Z,8.63
2022-12-11T15:41:26.725Z,8.80
2022-12-11T15:43:58.967Z,8.80
2022-12-11T15:46:26.703Z,8.90
2022-12-11T15:48:53.778Z,8.73
2022-12-11T15:51:20.624Z,8.77
2022-12-11T15:53:47.517Z,9.20
2022-12-11T15:56:16.229Z,8.33
2022-12-11T15:58:50.345Z,8.80
2022-12-11T16:01:17.838Z,9.10
2022-12-11T16:03:45.814Z,8.97
2022-12-11T16:06:13.850Z,8.23
2022-12-11T16:08:40.691Z,7.67
2022-12-11T16:11:07.520Z,8.40
2022-12-11T16:13:34.429Z,8.67
2022-12-11T16:16:02.743Z,9.13
2022-12-11T16:18:29.678Z,8.10
2022-12-11T16:20:56.481Z,7.73
2022-12-11T16:23:23.850Z,8.13
2022-12-11T16:25:51.932Z,8.43
2022-12-11T16:28:23.372Z,8.10
2022-12-11T16:30:50.413Z,8.63
2022-12-11T16:33:17.461Z,8.67
2022-12-11T16:35:44.419Z,8.83
2022-12-11T16:38:11.828Z,9.00
2022-12-11T16:40:38.825Z,8.87
2022-12-11T16:43:06.071Z,8.80
2022-12-11T16:45:33.074Z,11.40
2022-12-11T16:48:04.084Z,9.40
2022-12-11T16:50:32.208Z,9.50
2022-12-11T16:52:59.261Z,8.57
2022-12-11T16:55:26.130Z,9.30
2022-12-11T16:57:53.026Z,9.97
2022-12-11T17:00:20.572Z,9.63
2022-12-11T17:02:48.229Z,9.60
2022-12-11T17:05:15.520Z,8.67
2022-12-11T17:07:42.388Z,9.30
2022-12-11T17:10:09.733Z,9.03
2022-12-11T17:12:36.731Z,8.93
2022-12-11T17:15:03.868Z,9.83
2022-12-11T17:17:31.332Z,9.00
2022-12-11T17:19:58.346Z,9.47
2022-12-11T17:22:25.626Z,9.67
2022-12-11T17:24:52.467Z,9.97
2022-12-11T17:27:19.803Z,9.80
2022-12-11T17:29:49.477Z,9.50
2022-12-11T17:32:17.599Z,9.97
2022-12-11T17:34:45.245Z,9.30
2022-12-11T17:37:12.080Z,9.87
2022-12-11T17:39:40.224Z,9.60
2022-12-11T17:42:07.467Z,9.60
2022-12-11T17:44:34.911Z,9.87
2022-12-11T17:47:07.513Z,9.57
2022-12-11T17:49:38.242Z,9.47
2022-12-11T17:52:05.241Z,9.40
2022-12-11T17:54:32.152Z,9.77
2022-12-11T17:56:59.581Z,9.30
2022-12-11T17:59:26.466Z,9.50
2022-12-11T18:01:53.339Z,9.17
2022-12-11T18:04:20.247Z,10.83
2022-12-11T18:06:47.088Z,9.30
2022-12-11T18:09:14.239Z,9.57
2022-12-11T18:11:41.243Z,9.63
2022-12-11T18:14:12.326Z,9.77
2022-12-11T18:16:42.265Z,10.43
2022-12-11T18:19:09.119Z,10.07
2022-12-11T18:21:40.647Z,9.47
2022-12-11T18:24:08.776Z,10.27
2022-12-11T18:26:37.451Z,10.30
2022-12-11T18:29:04.824Z,10.93
2022-12-11T18:31:31.708Z,10.20
2022-12-11T18:33:58.696Z,10.87
2022-12-11T18:36:25.906Z,10.43
2022-12-11T18:38:52.996Z,11.30
2022-12-11T18:41:20.360Z,11.83
2022-12-11T18:43:47.733Z,11.67
2022-12-11T18:46:17.152Z,11.07
2022-12-11T18:48:45.261Z,11.67
2022-12-11T18:51:15.283Z,12.57
2022-12-11T18:53:42.138Z,12.00
2022-12-11T18:56:12.083Z,12.73
2022-12-11T18:58:39.209Z,12.77
2022-12-11T19:01:16.977Z,13.20
2022-12-11T19:03:47.158Z,14.07
2022-12-11T19:06:27.116Z,14.60
2022-12-11T19:09:21.245Z,13.90
2022-12-11T19:11:55.827Z,14.60
2022-12-11T19:14:22.695Z,13.37
2022-12-11T19:16:50.838Z,14.83
2022-12-11T19:19:22.072Z,14.17
2022-12-11T19:21:52.459Z,14.20
2022-12-11T19:24:21.887Z,14.60
2022-12-11T19:26:52.046Z,14.43
2022-12-11T19:29:25.491Z,13.97
2022-12-11T19:31:52.944Z,13.80
2022-12-11T19:34:23.335Z,13.77
2022-12-11T19:36:53.605Z,13.90
2022-12-11T19:39:20.427Z,14.03
2022-12-11T19:41:47.323Z,14.30
2022-12-11T19:44:16.580Z,12.53
2022-12-11T19:46:49.052Z,13.17
2022-12-11T19:49:16.235Z,14.00
2022-12-11T19:51:43.477Z,14.00
2022-12-11T19:54:13.665Z,14.43
2022-12-11T19:56:40.657Z,14.33
2022-12-11T19:59:10.768Z,13.27
2022-12-11T20:01:38.573Z,13.43
2022-12-11T20:04:08.551Z,13.60
2022-12-11T20:06:36.916Z,13.83
2022-12-11T20:09:05.410Z,12.87
2022-12-11T20:11:33.669Z,13.33
2022-12-11T20:14:00.518Z,12.30
2022-12-11T20:16:53.346Z,13.17
2022-12-11T20:19:14.518Z,13.10
2022-12-11T20:21:42.273Z,12.37
2022-12-11T20:24:10.237Z,11.93
2022-12-11T20:26:38.317Z,12.47
2022-12-11T20:29:08.218Z,11.93
2022-12-11T20:31:36.956Z,12.20
2022-12-11T20:34:05.361Z,12.40
2022-12-11T20:36:32.874Z,11.90
2022-12-11T20:39:00.191Z,11.50
2022-12-11T20:41:27.431Z,10.80
2022-12-11T20:43:54.475Z,11.40
2022-12-11T20:46:25.200Z,11.10
2022-12-11T20:48:53.198Z,11.20
2022-12-11T20:51:25.862Z,10.70
2022-12-11T20:53:59.106Z,10.47
2022-12-11T20:56:28.895Z,11.43
2022-12-11T20:58:57.006Z,11.90
2022-12-11T21:01:26.171Z,10.10
2022-12-11T21:03:53.616Z,10.83
2022-12-11T21:06:31.052Z,10.90
2022-12-11T21:09:00.451Z,10.93
2022-12-11T21:11:28.646Z,11.03
2022-12-11T21:13:55.772Z,11.37
2022-12-11T21:16:23.812Z,11.40
2022-12-11T21:18:51.010Z,11.47
2022-12-11T21:21:18.695Z,11.20
2022-12-11T21:23:45.621Z,11.47
2022-12-11T21:26:13.276Z,11.43
2022-12-11T21:28:42.351Z,10.00
2022-12-11T21:31:13.319Z,10.93
2022-12-11T21:33:40.220Z,10.40
2022-12-11T21:36:09.354Z,10.03
2022-12-11T21:38:36.515Z,10.47
2022-12-11T21:41:11.395Z,10.50
2022-12-11T21:43:52.565Z,10.37
2022-12-11T21:46:27.661Z,9.87
2022-12-11T21:48:54.806Z,10.00
2022-12-11T21:51:32.431Z,10.27
2022-12-11T21:54:03.389Z,10.03
2022-12-11T21:56:31.749Z,10.77
2022-12-11T21:58:58.564Z,10.53
2022-12-11T22:01:29.179Z,10.27
2022-12-11T22:03:57.728Z,11.07
2022-12-11T22:06:24.580Z,10.50
2022-12-11T22:08:51.505Z,10.53
2022-12-11T22:11:20.559Z,10.53
2022-12-11T22:13:47.661Z,10.77
2022-12-11T22:16:14.684Z,10.77
2022-12-11T22:18:41.670Z,11.17
2022-12-11T22:21:08.693Z,11.47
2022-12-11T22:23:37.344Z,11.40
2022-12-11T22:26:04.254Z,11.23
2022-12-11T22:28:31.177Z,11.47
2022-12-11T22:30:58.079Z,12.20
2022-12-11T22:33:25.169Z,11.97
2022-12-11T22:36:00.082Z,11.13
2022-12-11T22:38:27.490Z,10.70
2022-12-11T22:40:54.968Z,11.37
2022-12-11T22:43:21.862Z,11.37
2022-12-11T22:45:49.412Z,11.23
2022-12-11T22:48:16.334Z,11.47
2022-12-11T22:50:43.403Z,10.67
2022-12-11T22:53:10.361Z,11.43
2022-12-11T22:55:40.614Z,11.63
2022-12-11T22:58:07.876Z,10.93
2022-12-11T23:00:34.964Z,11.50
2022-12-11T23:03:02.454Z,11.80
2022-12-11T23:05:29.586Z,11.23
2022-12-11T23:07:56.593Z,10.43
2022-12-11T23:10:23.759Z,10.70
2022-12-11T23:12:50.593Z,11.57
2022-12-11T23:15:17.724Z,11.53
2022-12-11T23:17:44.641Z,11.13
2022-12-11T23:20:11.812Z,10.20
2022-12-11T23:22:38.742Z,10.27
2022-12-11T23:25:06.124Z,10.83
2022-12-11T23:27:32.976Z,10.27
2022-12-11T23:29:59.879Z,11.07
2022-12-11T23:32:26.754Z,10.33
2022-12-11T23:34:53.594Z,10.83
2022-12-11T23:37:20.554Z,10.70
2022-12-11T23:39:47.430Z,10.20
2022-12-11T23:42:14.258Z,10.80
2022-12-11T23:44:41.303Z,10.57
2022-12-11T23:47:08.323Z,10.70
2022-12-11T23:49:35.391Z,10.90
2022-12-11T23:52:02.507Z,10.83
2022-12-11T23:54:29.469Z,12.30
2022-12-11T23:56:56.490Z,10.70
2022-12-11T23:59:23.390Z,10.93
